Time;durP1;ratioP1;P1;durP2;ratioP2;P2;SDS_P1;SDS_P2;PMS_P1;PMS_P2;Temp;Humidity;BMP_temperature;BMP_pressure;BME280_temperature;BME280_humidity;BME280_pressure;Samples;Min_cycle;Max_cycle;Signal;HPM_P1;HPM_P2
2024/04/15 00:01:26;;;;;;;2.10;0.40;;;;;;;10.04;74.58;100952.44;5445488;26;20494;-69
2024/04/15 00:03:51;;;;;;;9.33;1.03;;;;;;;10.00;74.21;100945.19;5445342;26;20271;-69
2024/04/15 00:06:19;;;;;;;2.90;1.00;;;;;;;9.99;74.30;100955.22;5445322;26;20450;-69
2024/04/15 00:08:45;;;;;;;2.80;0.70;;;;;;;9.95;74.86;100937.13;5445414;26;20315;-69
2024/04/15 00:11:14;;;;;;;3.60;0.93;;;;;;;9.96;73.73;100938.75;5445492;26;21019;-69
2024/04/15 00:13:43;;;;;;;3.03;0.87;;;;;;;9.89;73.99;100924.75;5445101;26;20232;-69
2024/04/15 00:16:11;;;;;;;2.50;0.60;;;;;;;9.81;73.85;100929.69;5445196;26;20503;-69
2024/04/15 00:18:37;;;;;;;4.33;1.07;;;;;;;9.77;74.63;100919.75;5445103;26;20450;-68
2024/04/15 00:21:10;;;;;;;3.37;0.90;;;;;;;9.80;74.74;100913.78;5444641;26;20518;-68
2024/04/15 00:23:36;;;;;;;2.53;0.80;;;;;;;9.76;75.67;100913.53;5445019;26;20482;-68
2024/04/15 00:26:04;;;;;;;2.20;0.40;;;;;;;9.72;77.42;100914.41;5445038;26;20457;-68
2024/04/15 00:28:30;;;;;;;2.10;0.40;;;;;;;9.73;77.56;100914.09;5444980;26;20511;-68
2024/04/15 00:31:01;;;;;;;2.37;0.67;;;;;;;9.83;78.00;100918.63;5444483;26;20470;-69
2024/04/15 00:33:27;;;;;;;3.00;0.77;;;;;;;9.96;77.05;100903.56;5444869;26;20292;-69
2024/04/15 00:35:55;;;;;;;2.10;0.40;;;;;;;9.83;77.39;100903.19;5444946;26;20575;-69
2024/04/15 00:38:21;;;;;;;2.20;0.47;;;;;;;9.92;76.72;100906.06;5444827;26;20610;-69
2024/04/15 00:40:49;;;;;;;2.30;0.60;;;;;;;9.86;76.91;100910.69;5444418;26;20809;-69
2024/04/15 00:43:15;;;;;;;4.27;0.77;;;;;;;9.81;77.62;100913.47;5444571;26;20258;-69
2024/04/15 00:45:43;;;;;;;2.10;0.40;;;;;;;9.79;78.26;100917.56;5444883;26;20806;-69
2024/04/15 00:48:14;;;;;;;2.27;0.50;;;;;;;9.92;76.87;100905.25;5444694;26;20316;-69
2024/04/15 00:50:45;;;;;;;3.27;0.40;;;;;;;9.99;76.23;100901.09;5445007;26;20473;-69
2024/04/15 00:53:12;;;;;;;2.37;0.53;;;;;;;10.06;75.27;100906.16;5444419;26;20470;-69
2024/04/15 00:55:43;;;;;;;2.10;0.50;;;;;;;9.94;76.12;100900.34;5444641;26;20450;-69
2024/04/15 00:58:10;;;;;;;2.30;0.50;;;;;;;9.82;76.53;100896.13;5444689;26;20450;-69
2024/04/15 01:00:39;;;;;;;2.10;0.40;;;;;;;9.79;75.63;100891.31;5444439;26;20462;-68
2024/04/15 01:03:05;;;;;;;8.87;0.80;;;;;;;9.79;74.84;100894.03;5444240;26;20474;-68
2024/04/15 01:05:36;;;;;;;2.20;0.50;;;;;;;9.92;75.15;100886.31;5444521;26;20560;-68
2024/04/15 01:08:02;;;;;;;2.20;0.50;;;;;;;9.81;73.93;100877.50;5444542;26;20458;-68
2024/04/15 01:10:31;;;;;;;2.40;0.60;;;;;;;9.73;74.51;100878.94;5444094;26;20470;-68
2024/04/15 01:12:57;;;;;;;2.23;0.50;;;;;;;9.77;73.32;100876.47;5444300;26;20470;-68
2024/04/15 01:15:25;;;;;;;2.37;0.60;;;;;;;9.86;72.74;100885.56;5444372;26;20575;-68
2024/04/15 01:17:51;;;;;;;5.17;0.60;;;;;;;9.86;73.27;100877.44;5444284;26;20216;-68
2024/04/15 01:20:19;;;;;;;2.17;0.40;;;;;;;9.79;72.46;100877.78;5444019;26;20525;-68
2024/04/15 01:22:54;;;;;;;2.10;0.40;;;;;;;9.59;74.28;100878.00;5444147;26;20267;-68
2024/04/15 01:25:26;;;;;;;2.00;0.40;;;;;;;9.65;74.70;100884.16;5444337;26;20936;-68
2024/04/15 01:27:52;;;;;;;2.87;1.00;;;;;;;9.61;75.72;100873.13;5444167;26;20458;-68
2024/04/15 01:30:20;;;;;;;2.63;0.77;;;;;;;9.60;75.35;100869.59;5443741;26;21080;-68
2024/04/15 01:32:46;;;;;;;2.13;0.40;;;;;;;9.62;76.31;100874.75;5444092;26;20807;-68
2024/04/15 01:35:15;;;;;;;3.70;0.87;;;;;;;9.64;76.49;100867.13;5444226;26;20552;-68
2024/04/15 01:37:41;;;;;;;2.10;0.40;;;;;;;9.66;76.44;100854.16;5444138;26;20229;-68
2024/04/15 01:40:10;;;;;;;2.10;0.50;;;;;;;9.81;76.96;100832.31;5453362;26;20461;-68
2024/04/15 01:42:38;;;;;;;2.10;0.40;;;;;;;9.93;77.00;100820.28;5445897;26;20236;-68
2024/04/15 01:45:07;;;;;;;3.53;1.03;;;;;;;9.88;77.45;100837.38;5443541;26;20806;-68
2024/04/15 01:47:34;;;;;;;5.30;0.50;;;;;;;9.82;79.57;100825.81;5443719;26;20474;-69
2024/04/15 01:50:02;;;;;;;2.60;0.73;;;;;;;9.84;78.67;100839.84;5443016;26;20502;-69
2024/04/15 01:52:28;;;;;;;2.10;0.43;;;;;;;9.74;79.33;100842.69;5443712;26;20474;-69
2024/04/15 01:54:56;;;;;;;3.10;0.67;;;;;;;9.79;78.96;100831.81;5443474;26;20525;-69
2024/04/15 01:57:22;;;;;;;2.10;0.40;;;;;;;9.84;77.96;100842.56;5443445;26;20229;-69
2024/04/15 01:59:53;;;;;;;2.30;0.40;;;;;;;9.81;79.44;100835.00;5443772;26;20454;-69
2024/04/15 02:02:18;;;;;;;9.50;1.03;;;;;;;9.77;79.34;100830.47;5443574;26;20324;-69
2024/04/15 02:04:46;;;;;;;2.77;0.60;;;;;;;9.71;79.76;100827.03;5443682;26;20847;-69
2024/04/15 02:07:12;;;;;;;2.60;0.80;;;;;;;9.69;80.35;100815.69;5443109;26;20228;-69
2024/04/15 02:09:40;;;;;;;2.20;0.57;;;;;;;9.79;79.84;100810.16;5443491;26;20562;-69
2024/04/15 02:12:07;;;;;;;2.30;0.50;;;;;;;9.85;79.23;100803.59;5443511;26;20595;-69
2024/04/15 02:14:35;;;;;;;2.77;0.60;;;;;;;9.81;79.11;100796.34;5443495;26;21033;-67
2024/04/15 02:17:04;;;;;;;2.70;0.60;;;;;;;9.75;77.42;100792.91;5443352;26;20465;-67
2024/04/15 02:19:32;;;;;;;2.70;0.90;;;;;;;9.65;77.66;100795.75;5443907;26;20474;-67
2024/04/15 02:21:58;;;;;;;9.07;0.83;;;;;;;9.62;77.74;100798.22;5442966;26;20610;-68
2024/04/15 02:24:27;;;;;;;2.70;0.60;;;;;;;9.63;76.87;100797.91;5443501;26;20514;-68
2024/04/15 02:26:53;;;;;;;2.10;0.50;;;;;;;9.63;76.73;100797.13;5443292;26;20258;-69
2024/04/15 02:29:21;;;;;;;2.10;0.50;;;;;;;9.49;78.70;100799.72;5443270;26;20804;-69
2024/04/15 02:31:47;;;;;;;6.93;1.10;;;;;;;9.47;78.93;100804.59;5443153;26;20225;-69
2024/04/15 02:34:19;;;;;;;2.40;0.70;;;;;;;9.65;78.08;100793.03;5442805;26;20875;-69
2024/04/15 02:36:45;;;;;;;2.50;0.87;;;;;;;9.69;78.87;100799.44;5442665;26;20748;-69
2024/04/15 02:39:13;;;;;;;2.40;0.53;;;;;;;9.67;79.44;100792.75;5442820;26;20517;-69
2024/04/15 02:41:38;;;;;;;2.20;0.43;;;;;;;9.69;80.30;100785.13;5442932;26;20466;-69
2024/04/15 02:44:07;;;;;;;2.20;0.50;;;;;;;9.68;80.03;100776.22;5455736;20;20547;-69
2024/04/15 02:46:33;;;;;;;2.20;0.60;;;;;;;9.68;81.60;100770.81;5409442;26;20276;-69
2024/04/15 02:49:02;;;;;;;2.30;0.60;;;;;;;9.77;80.83;100773.66;5432946;26;20466;-69
2024/04/15 02:51:31;;;;;;;2.43;0.57;;;;;;;9.81;81.74;100764.69;5442862;26;20329;-69
2024/04/15 02:53:59;;;;;;;2.20;0.50;;;;;;;9.81;82.38;100764.69;5442516;26;20982;-70
2024/04/15 02:56:25;;;;;;;2.97;0.70;;;;;;;9.83;82.38;100757.09;5442750;26;20458;-70
2024/04/15 02:58:53;;;;;;;2.10;0.47;;;;;;;9.79;81.07;100757.97;5480824;26;20526;-70
2024/04/15 03:01:19;;;;;;;3.80;1.00;;;;;;;9.81;79.90;100753.06;5442623;26;20216;-69
2024/04/15 03:03:48;;;;;;;2.20;0.67;;;;;;;9.83;79.70;100750.88;5445306;26;20518;-69
2024/04/15 03:06:18;;;;;;;2.50;0.70;;;;;;;9.70;80.13;100757.81;5446153;26;20224;-70
2024/04/15 03:08:50;;;;;;;2.10;0.40;;;;;;;9.71;78.38;100756.72;5446183;26;20522;-70
2024/04/15 03:11:15;;;;;;;3.93;0.87;;;;;;;9.76;76.83;100761.25;5410250;26;21112;-70
2024/04/15 03:13:43;;;;;;;2.10;0.40;;;;;;;9.85;76.90;100741.34;5410111;26;20463;-70
2024/04/15 03:16:09;;;;;;;2.50;0.70;;;;;;;10.01;77.66;100736.53;5410105;26;20260;-70
2024/04/15 03:18:37;;;;;;;2.30;0.70;;;;;;;10.06;77.50;100716.72;5415956;26;20473;-70
2024/04/15 03:21:07;;;;;;;3.40;0.60;;;;;;;9.97;78.15;100699.53;5446056;26;20348;-69
2024/04/15 03:23:35;;;;;;;2.30;0.50;;;;;;;9.94;77.76;100692.00;5445795;26;20588;-69
2024/04/15 03:26:03;;;;;;;2.40;0.63;;;;;;;9.82;76.75;100677.00;5445537;26;20509;-69
2024/04/15 03:28:31;;;;;;;2.27;0.53;;;;;;;9.76;76.68;100678.19;5445808;26;20470;-69
2024/04/15 03:30:57;;;;;;;2.00;0.37;;;;;;;9.61;75.96;100678.44;5445331;26;20470;-69
2024/04/15 03:33:25;;;;;;;2.20;0.50;;;;;;;9.30;77.12;100684.25;5445758;26;21095;-69
2024/04/15 03:35:51;;;;;;;2.60;0.80;;;;;;;9.31;75.15;100683.13;5445818;26;20736;-69
2024/04/15 03:38:19;;;;;;;2.57;0.90;;;;;;;9.29;75.18;100666.38;5445666;26;20455;-69
2024/04/15 03:40:45;;;;;;;2.80;0.80;;;;;;;9.34;74.56;100643.91;5445568;26;20228;-69
2024/04/15 03:43:16;;;;;;;2.17;0.50;;;;;;;9.35;76.16;100643.63;5445420;26;20534;-68
2024/04/15 03:45:42;;;;;;;2.47;0.60;;;;;;;9.34;77.96;100642.03;5445748;26;20264;-69
2024/04/15 03:48:10;;;;;;;2.70;0.60;;;;;;;9.35;78.19;100648.22;5445490;26;20461;-69
2024/04/15 03:50:35;;;;;;;3.10;0.83;;;;;;;9.32;80.47;100659.63;5445187;26;20263;-69
2024/04/15 03:53:04;;;;;;;2.10;0.40;;;;;;;9.35;79.88;100651.72;5445360;26;20981;-69
2024/04/15 03:55:29;;;;;;;2.30;0.50;;;;;;;9.31;80.07;100648.00;5445566;26;20255;-69
2024/04/15 03:57:57;;;;;;;2.20;0.50;;;;;;;9.39;79.67;100656.56;5445429;26;20961;-69
2024/04/15 04:00:26;;;;;;;2.47;0.73;;;;;;;9.23;80.05;100654.03;5445402;26;20224;-69
2024/04/15 04:02:54;;;;;;;2.90;0.90;;;;;;;9.05;79.95;100669.13;5444705;26;20839;-69
2024/04/15 04:05:20;;;;;;;2.10;0.30;;;;;;;8.97;79.99;100679.78;5445338;26;20454;-69
2024/04/15 04:07:48;;;;;;;2.20;0.57;;;;;;;8.84;77.88;100673.97;5445274;26;20571;-69
2024/04/15 04:10:14;;;;;;;2.10;0.40;;;;;;;8.77;78.45;100665.41;5445197;26;20225;-69
2024/04/15 04:12:43;;;;;;;2.10;0.40;;;;;;;8.74;78.25;100657.88;5444596;26;20568;-69
2024/04/15 04:15:08;;;;;;;2.40;0.60;;;;;;;8.83;79.56;100664.25;5445459;26;20571;-68
2024/04/15 04:17:39;;;;;;;3.03;0.83;;;;;;;8.92;79.84;100658.22;5445188;26;20961;-68
2024/04/15 04:20:06;;;;;;;2.80;0.90;;;;;;;9.01;78.22;100670.00;5445407;26;20747;-69
2024/04/15 04:22:34;;;;;;;2.20;0.40;;;;;;;9.13;77.14;100666.91;5445141;26;20843;-69
2024/04/15 04:25:00;;;;;;;2.30;0.50;;;;;;;9.17;77.70;100666.03;5444911;26;21057;-68
2024/04/15 04:27:28;;;;;;;2.20;0.40;;;;;;;9.21;78.31;100664.34;5445161;26;20450;-68
2024/04/15 04:29:53;;;;;;;2.57;0.67;;;;;;;9.16;77.66;100656.28;5445039;26;20216;-68
2024/04/15 04:32:22;;;;;;;2.17;0.47;;;;;;;9.15;76.98;100665.50;5444905;26;20521;-68
2024/04/15 04:34:50;;;;;;;2.10;0.40;;;;;;;9.20;77.60;100667.31;5445183;26;20229;-68
2024/04/15 04:37:18;;;;;;;2.50;0.50;;;;;;;9.22;77.18;100665.16;5409197;26;20455;-68
2024/04/15 04:39:44;;;;;;;2.20;0.50;;;;;;;9.30;77.07;100670.72;5409062;26;20504;-68
2024/04/15 04:42:12;;;;;;;3.60;0.63;;;;;;;9.29;76.46;100666.38;5408853;26;20448;-68
2024/04/15 04:44:38;;;;;;;2.77;0.60;;;;;;;9.18;76.33;100673.03;5414610;26;20276;-68
2024/04/15 04:47:06;;;;;;;3.60;1.00;;;;;;;9.02;76.38;100667.00;5444866;26;20501;-68
2024/04/15 04:49:32;;;;;;;3.53;1.30;;;;;;;9.02;76.81;100660.78;5444934;26;20221;-68
2024/04/15 04:52:03;;;;;;;2.47;0.80;;;;;;;9.16;77.49;100663.59;5445160;26;20458;-68
2024/04/15 04:54:28;;;;;;;2.30;0.60;;;;;;;9.02;78.70;100669.69;5444750;26;20732;-66
2024/04/15 04:56:57;;;;;;;5.13;1.13;;;;;;;9.02;79.83;100669.69;5444694;26;20543;-69
2024/04/15 04:59:22;;;;;;;2.47;0.67;;;;;;;8.98;79.79;100665.97;5444820;26;20405;-69
2024/04/15 05:01:51;;;;;;;3.10;1.10;;;;;;;9.00;80.90;100673.81;5444467;26;20576;-69
2024/04/15 05:04:16;;;;;;;2.20;0.50;;;;;;;9.01;80.80;100680.81;5443021;26;20236;-68
2024/04/15 05:06:45;;;;;;;2.20;0.60;;;;;;;9.01;80.41;100686.22;5420561;26;20754;-68
2024/04/15 05:09:13;;;;;;;2.73;0.70;;;;;;;9.08;80.78;100683.97;5427522;26;20571;-68
2024/04/15 05:11:41;;;;;;;2.20;0.40;;;;;;;9.13;81.28;100683.09;5444530;26;20462;-68
2024/04/15 05:14:07;;;;;;;2.23;0.50;;;;;;;9.10;83.29;100682.56;5445967;26;20482;-68
2024/04/15 05:16:35;;;;;;;2.13;0.47;;;;;;;9.07;84.98;100680.47;5437220;26;20880;-69
2024/04/15 05:19:01;;;;;;;2.83;0.90;;;;;;;9.19;85.05;100679.25;5442719;26;20236;-69
2024/04/15 05:21:29;;;;;;;2.80;0.80;;;;;;;9.21;85.53;100680.56;5441546;26;20466;-69
2024/04/15 05:23:55;;;;;;;2.30;0.67;;;;;;;9.25;84.34;100680.78;5438600;26;20241;-68
2024/04/15 05:26:25;;;;;;;2.30;0.60;;;;;;;9.33;83.55;100678.22;5440505;26;20525;-69
2024/04/15 05:28:51;;;;;;;2.30;0.57;;;;;;;9.41;83.21;100678.69;5443163;26;20240;-69
2024/04/15 05:31:19;;;;;;;7.43;1.23;;;;;;;9.46;81.00;100674.00;5442730;26;20474;-69
2024/04/15 05:33:46;;;;;;;2.50;0.70;;;;;;;9.58;80.59;100660.06;5441004;26;20244;-69
2024/04/15 05:36:14;;;;;;;3.60;1.03;;;;;;;9.65;76.69;100657.81;5443357;26;20462;-69
2024/04/15 05:38:40;;;;;;;2.63;0.87;;;;;;;9.61;76.20;100659.50;5443379;26;20973;-69
2024/04/15 05:41:09;;;;;;;5.80;1.20;;;;;;;9.72;76.82;100655.53;5443493;26;20478;-69
2024/04/15 05:43:37;;;;;;;2.60;0.70;;;;;;;9.86;74.66;100650.19;5443037;26;20538;-70
2024/04/15 05:46:06;;;;;;;3.10;0.80;;;;;;;9.90;73.21;100642.28;5441496;26;20478;-69
2024/04/15 05:48:32;;;;;;;4.67;1.03;;;;;;;9.89;73.75;100641.47;5409519;26;20618;-67
2024/04/15 05:51:00;;;;;;;4.97;0.87;;;;;;;9.95;72.25;100639.50;5442238;26;20477;-67
2024/04/15 05:53:26;;;;;;;4.10;0.97;;;;;;;10.08;71.87;100644.16;5443740;26;20751;-68
2024/04/15 05:55:54;;;;;;;3.10;1.03;;;;;;;10.24;71.25;100639.28;5443718;26;20529;-68
2024/04/15 05:58:20;;;;;;;5.70;1.30;;;;;;;10.33;69.99;100635.63;5443675;26;20336;-68
2024/04/15 06:00:51;;;;;;;4.93;0.67;;;;;;;10.38;68.96;100639.34;5442358;26;20474;-68
2024/04/15 06:03:17;;;;;;;6.30;0.80;;;;;;;10.51;69.64;100630.44;5442265;26;20625;-68
2024/04/15 06:05:45;;;;;;;3.17;0.80;;;;;;;10.65;68.90;100623.13;5442583;26;20711;-68
2024/04/15 06:08:10;;;;;;;2.50;0.60;;;;;;;10.82;70.20;100626.03;5443026;26;20279;-68
2024/04/15 06:10:39;;;;;;;3.23;0.60;;;;;;;10.81;70.50;100621.72;5443353;26;20450;-68
2024/04/15 06:13:04;;;;;;;2.80;0.70;;;;;;;10.95;70.84;100620.91;5442510;26;20283;-68
2024/04/15 06:15:36;;;;;;;3.37;0.63;;;;;;;11.04;69.03;100610.97;5441706;26;20823;-68
2024/04/15 06:18:06;;;;;;;2.63;0.63;;;;;;;11.07;67.59;100610.38;5443638;26;20224;-68
2024/04/15 06:20:34;;;;;;;3.33;0.60;;;;;;;11.17;67.29;100606.63;5441932;26;21005;-68
2024/04/15 06:22:59;;;;;;;3.60;0.83;;;;;;;11.23;67.71;100600.78;5442495;26;20546;-68
2024/04/15 06:25:28;;;;;;;5.00;0.93;;;;;;;11.27;67.02;100604.50;5442706;26;20474;-68
2024/04/15 06:27:53;;;;;;;4.13;0.57;;;;;;;11.28;66.04;100602.59;5442719;26;20236;-68
2024/04/15 06:30:21;;;;;;;3.40;0.80;;;;;;;11.18;68.20;100606.31;5442825;26;20949;-68
2024/04/15 06:32:47;;;;;;;6.43;0.97;;;;;;;11.16;68.18;100603.13;5424248;26;20268;-68
2024/04/15 06:35:18;;;;;;;5.27;1.30;;;;;;;11.05;67.41;100612.56;5441871;26;22063;-68
2024/04/15 06:37:44;;;;;;;2.17;0.50;;;;;;;10.88;62.00;100604.25;5445645;26;20248;-69
2024/04/15 06:40:12;;;;;;;2.43;0.57;;;;;;;10.78;64.58;100600.66;5446541;26;20458;-69
2024/04/15 06:42:38;;;;;;;9.63;1.00;;;;;;;10.80;63.25;100595.75;5445577;26;20321;-69
2024/04/15 06:45:07;;;;;;;7.97;1.07;;;;;;;10.85;63.57;100589.41;5445799;26;20482;-69
2024/04/15 06:47:32;;;;;;;2.60;0.60;;;;;;;10.93;65.15;100593.31;5445892;26;20233;-69
2024/04/15 06:50:01;;;;;;;2.67;0.83;;;;;;;10.94;62.99;100597.66;5445325;26;20582;-70
2024/04/15 06:52:29;;;;;;;3.30;0.83;;;;;;;10.88;65.00;100591.50;5445442;26;20240;-69
2024/04/15 06:54:57;;;;;;;2.37;0.57;;;;;;;10.92;63.74;100581.66;5445571;26;20458;-69
2024/04/15 06:57:23;;;;;;;2.73;0.60;;;;;;;10.99;65.00;100575.84;5446382;26;20502;-69
2024/04/15 06:59:51;;;;;;;2.50;0.80;;;;;;;11.04;66.81;100571.13;5445112;26;20462;-69
2024/04/15 07:02:21;;;;;;;4.20;0.90;;;;;;;11.07;66.30;100570.50;5445404;26;20344;-68
2024/04/15 07:04:52;;;;;;;2.30;0.60;;;;;;;11.16;67.01;100565.16;5445208;26;20482;-69
2024/04/15 07:07:18;;;;;;;3.93;0.80;;;;;;;11.25;66.42;100566.03;5445714;26;20929;-69
2024/04/15 07:09:48;;;;;;;2.37;0.50;;;;;;;11.37;67.49;100562.78;5445315;26;20524;-67
2024/04/15 07:12:14;;;;;;;4.40;0.70;;;;;;;11.37;65.92;100555.44;5446063;26;20560;-67
2024/04/15 07:14:43;;;;;;;13.43;1.33;;;;;;;11.40;68.14;100558.66;5444549;26;20514;-68
2024/04/15 07:17:08;;;;;;;3.10;0.97;;;;;;;11.45;67.02;100553.13;5432690;26;20283;-67
2024/04/15 07:19:36;;;;;;;2.97;0.70;;;;;;;11.52;69.42;100550.78;5445137;26;20466;-68
2024/04/15 07:22:02;;;;;;;10.60;1.20;;;;;;;11.49;69.30;100557.63;5444118;26;20237;-69
2024/04/15 07:24:31;;;;;;;4.70;1.17;;;;;;;11.56;71.29;100549.06;5444769;26;20482;-68
2024/04/15 07:26:59;;;;;;;5.27;1.13;;;;;;;11.58;71.83;100542.22;5444024;26;20240;-68
2024/04/15 07:29:27;;;;;;;3.90;1.30;;;;;;;11.63;71.74;100538.56;5445080;26;20469;-68
2024/04/15 07:31:54;;;;;;;3.53;1.37;;;;;;;11.75;72.27;100538.81;5444520;26;20470;-69
2024/04/15 07:34:22;;;;;;;4.30;1.50;;;;;;;11.89;71.19;100529.81;5445068;26;20520;-69
2024/04/15 07:36:48;;;;;;;4.27;1.50;;;;;;;12.03;71.76;100527.81;5443189;26;20960;-69
2024/04/15 07:39:16;;;;;;;2.83;0.97;;;;;;;12.06;71.40;100522.56;5443853;26;21016;-69
2024/04/15 07:41:42;;;;;;;4.93;1.53;;;;;;;12.08;71.96;100514.09;5444180;26;20241;-69
2024/04/15 07:44:13;;;;;;;4.60;1.43;;;;;;;12.08;72.59;100505.94;5442728;26;20552;-69
2024/04/15 07:46:38;;;;;;;6.13;2.07;;;;;;;12.14;73.77;100509.34;5442939;26;20244;-69
2024/04/15 07:49:07;;;;;;;4.00;1.60;;;;;;;12.28;76.17;100502.69;5442116;26;20462;-69
2024/04/15 07:51:33;;;;;;;7.73;1.90;;;;;;;12.37;73.99;100500.00;5440638;26;20578;-69
2024/04/15 07:54:01;;;;;;;3.77;1.67;;;;;;;12.36;73.58;100487.53;5444271;26;20551;-69
2024/04/15 07:56:26;;;;;;;3.20;1.30;;;;;;;12.42;73.79;100496.34;5442341;26;20236;-69
2024/04/15 07:58:55;;;;;;;3.80;1.60;;;;;;;12.59;73.53;100508.06;5441084;26;20525;-69
2024/04/15 08:01:23;;;;;;;5.43;2.17;;;;;;;12.62;72.48;100501.19;5441135;26;20240;-68
2024/04/15 08:03:51;;;;;;;6.00;1.70;;;;;;;12.63;72.46;100503.59;5440938;26;20534;-68
2024/04/15 08:06:17;;;;;;;3.50;1.47;;;;;;;12.75;73.71;100500.25;5443605;26;20466;-68
2024/04/15 08:08:45;;;;;;;3.67;1.73;;;;;;;12.92;72.13;100501.38;5441868;26;20880;-68
2024/04/15 08:11:10;;;;;;;5.00;1.90;;;;;;;12.95;71.42;100504.28;5442453;26;20283;-68
2024/04/15 08:13:39;;;;;;;3.00;1.53;;;;;;;12.90;71.98;100490.03;5443748;26;20470;-68
2024/04/15 08:16:05;;;;;;;4.40;2.00;;;;;;;12.81;73.21;100492.75;5443600;26;20625;-68
2024/04/15 08:18:36;;;;;;;8.37;3.00;;;;;;;12.96;72.20;100488.75;5444204;26;21072;-68
2024/04/15 08:21:01;;;;;;;6.20;2.33;;;;;;;12.97;71.96;100493.06;5443170;26;20473;-68
2024/04/15 08:23:30;;;;;;;4.03;1.93;;;;;;;13.03;73.39;100491.81;5442834;26;21072;-68
2024/04/15 08:25:57;;;;;;;6.17;2.67;;;;;;;12.95;71.18;100484.44;5440968;26;20233;-68
2024/04/15 08:28:26;;;;;;;4.43;2.30;;;;;;;12.85;73.28;100480.91;5441830;26;20571;-72
2024/04/15 08:30:52;;;;;;;5.30;2.20;;;;;;;12.97;72.91;100474.84;5440197;26;20465;-68
2024/04/15 08:33:20;;;;;;;3.90;1.33;;;;;;;13.02;71.60;100465.75;5442976;26;20525;-68
2024/04/15 08:35:48;;;;;;;6.50;1.90;;;;;;;13.19;73.30;100470.34;5441734;26;20236;-68
2024/04/15 08:38:17;;;;;;;4.83;1.50;;;;;;;13.19;69.96;100471.16;5441034;26;20502;-68
2024/04/15 08:40:54;;;;;;;3.30;1.43;;;;;;;13.05;70.99;100463.16;5440988;26;20522;-68
2024/04/15 08:43:24;;;;;;;4.23;1.37;;;;;;;12.86;69.64;100463.47;5440402;26;20474;-66
2024/04/15 08:45:53;;;;;;;5.90;2.30;;;;;;;12.78;70.86;100455.31;5508572;20;20545;-70
2024/04/15 08:48:24;;;;;;;3.63;1.57;;;;;;;12.83;70.92;100453.25;5523569;25;20932;-68
2024/04/15 08:50:53;;;;;;;3.70;1.50;;;;;;;12.96;71.65;100448.75;5510184;25;20519;-73
2024/04/15 08:53:22;;;;;;;3.37;1.47;;;;;;;13.17;70.42;100439.97;5520312;25;20468;-71
2024/04/15 08:55:49;;;;;;;3.53;1.40;;;;;;;13.29;69.41;100449.09;5510602;26;20517;-70
2024/04/15 08:58:18;;;;;;;2.87;1.23;;;;;;;13.44;68.99;100445.06;5520170;26;20475;-70
2024/04/15 09:00:45;;;;;;;3.57;1.10;;;;;;;13.71;69.14;100441.16;5520432;25;21190;-72
2024/04/15 09:03:14;;;;;;;4.40;1.30;;;;;;;13.93;66.89;100440.09;5506061;26;20480;-72
2024/04/15 09:05:39;;;;;;;2.80;1.13;;;;;;;14.19;64.81;100437.25;5518652;26;21110;-72
2024/04/15 09:08:11;;;;;;;2.80;1.00;;;;;;;14.31;63.56;100440.09;5513825;26;20459;-70
2024/04/15 09:10:36;;;;;;;3.00;1.13;;;;;;;14.51;61.50;100433.09;5515023;26;20527;-71
2024/04/15 09:13:05;;;;;;;7.67;1.50;;;;;;;14.64;62.83;100425.78;5515965;26;20468;-72
2024/04/15 09:15:32;;;;;;;3.73;1.20;;;;;;;14.67;61.11;100424.34;5519246;26;20300;-72
2024/04/15 09:18:00;;;;;;;3.17;1.37;;;;;;;14.73;60.35;100412.88;5518439;26;20459;-72
2024/04/15 09:20:25;;;;;;;3.13;0.97;;;;;;;14.74;60.59;100405.50;5512419;25;20531;-72
2024/04/15 09:22:54;;;;;;;3.90;1.10;;;;;;;14.67;60.34;100406.03;5501385;26;20472;-70
2024/04/15 09:25:22;;;;;;;12.13;1.63;;;;;;;14.67;60.47;100400.59;5512008;26;20235;-71
2024/04/15 09:27:50;;;;;;;5.10;1.40;;;;;;;14.70;62.13;100391.75;5495139;26;20464;-70
2024/04/15 09:30:16;;;;;;;2.67;0.77;;;;;;;14.66;58.96;100388.09;5516758;25;20471;-70
2024/04/15 09:32:45;;;;;;;2.50;0.93;;;;;;;14.51;59.01;100384.03;5514058;26;20771;-70
2024/04/15 09:35:11;;;;;;;2.80;0.70;;;;;;;14.41;59.46;100369.97;5512056;26;20691;-71
2024/04/15 09:37:41;;;;;;;2.80;0.90;;;;;;;14.56;60.15;100377.56;5514275;26;20457;-69
2024/04/15 09:40:13;;;;;;;3.50;1.43;;;;;;;14.56;58.99;100370.19;5519040;26;20479;-70
2024/04/15 09:42:45;;;;;;;2.80;0.70;;;;;;;14.63;59.59;100356.03;5514997;26;21134;-71
2024/04/15 09:45:11;;;;;;;4.73;0.90;;;;;;;14.55;58.53;100354.97;5524215;25;20511;-70
2024/04/15 09:47:42;;;;;;;2.57;0.83;;;;;;;14.60;61.89;100352.03;5557100;25;20453;-71
2024/04/15 09:50:08;;;;;;;2.40;0.73;;;;;;;14.82;61.20;100344.63;5550814;25;21073;-71
2024/04/15 09:52:40;;;;;;;10.73;1.00;;;;;;;14.93;59.11;100342.31;5552225;25;20513;-70
2024/04/15 09:55:07;;;;;;;2.90;0.90;;;;;;;14.92;60.00;100332.50;5542185;25;20285;-71
2024/04/15 09:57:40;;;;;;;2.63;0.87;;;;;;;14.87;58.09;100328.06;5551671;25;20821;-71
2024/04/15 10:00:13;;;;;;;2.83;0.67;;;;;;;14.86;61.53;100330.00;5557248;25;20469;-71
2024/04/15 10:02:53;;;;;;;3.30;0.70;;;;;;;15.04;61.30;100319.69;5553575;25;20525;-71
2024/04/15 10:05:21;;;;;;;2.80;0.83;;;;;;;15.25;59.43;100316.91;5551876;25;20475;-70
2024/04/15 10:07:52;;;;;;;3.80;1.17;;;;;;;15.50;58.20;100314.22;5546749;25;20467;-71
2024/04/15 10:10:19;;;;;;;5.00;1.07;;;;;;;15.50;56.30;100303.31;5554500;25;20466;-71
2024/04/15 10:12:48;;;;;;;3.17;1.23;;;;;;;15.47;56.19;100298.50;5555792;25;20529;-71
2024/04/15 10:15:17;;;;;;;2.80;0.80;;;;;;;15.58;59.13;100294.16;5554397;25;20465;-70
2024/04/15 10:17:57;;;;;;;3.07;0.90;;;;;;;15.50;55.14;100290.44;5547797;25;20500;-69
2024/04/15 10:20:27;;;;;;;2.60;0.90;;;;;;;15.29;55.35;100285.09;5548280;25;20551;-70
2024/04/15 10:22:59;;;;;;;2.47;0.80;;;;;;;15.02;54.81;100283.00;5559418;25;20537;-67
2024/04/15 10:25:26;;;;;;;2.93;0.97;;;;;;;14.67;55.26;100283.34;5546408;25;20533;-68
2024/04/15 10:27:54;;;;;;;3.37;1.03;;;;;;;14.51;57.42;100272.28;5547180;25;20574;-67
2024/04/15 10:30:26;;;;;;;3.43;1.03;;;;;;;14.60;61.34;100277.66;5534371;25;20989;-67
2024/04/15 10:32:59;;;;;;;2.67;0.87;;;;;;;14.62;58.16;100267.22;5559751;25;20465;-69
2024/04/15 10:35:26;;;;;;;3.00;0.80;;;;;;;14.55;55.54;100266.97;5537684;25;20470;-69
2024/04/15 10:37:55;;;;;;;4.20;0.67;;;;;;;14.43;56.28;100256.75;5547708;25;20805;-70
2024/04/15 10:40:20;;;;;;;2.57;0.60;;;;;;;14.55;58.92;100261.50;5543551;25;21061;-69
2024/04/15 10:42:49;;;;;;;3.80;1.13;;;;;;;14.59;56.60;100248.81;5532492;25;20457;-70
2024/04/15 10:45:17;;;;;;;2.10;0.40;;;;;;;14.67;59.48;100241.69;5542755;25;20234;-69
2024/04/15 10:47:50;;;;;;;3.27;0.80;;;;;;;14.85;59.86;100241.16;5540641;25;20525;-69
2024/04/15 10:50:16;;;;;;;3.13;1.10;;;;;;;14.88;56.15;100231.50;5548035;25;20525;-74
2024/04/15 10:52:44;;;;;;;4.17;1.37;;;;;;;14.73;57.07;100232.13;5563963;25;20837;-72
2024/04/15 10:55:10;;;;;;;3.13;1.00;;;;;;;14.53;58.12;100239.25;5562329;25;20217;-73
2024/04/15 10:57:39;;;;;;;2.80;0.80;;;;;;;14.45;61.56;100226.47;5537123;25;21115;-73
2024/04/15 11:00:10;;;;;;;2.90;0.97;;;;;;;14.30;57.63;100215.06;5550404;25;20225;-69
2024/04/15 11:02:41;;;;;;;2.40;0.80;;;;;;;14.22;59.40;100221.41;5541810;25;20469;-71
2024/04/15 11:05:11;;;;;;;3.17;0.80;;;;;;;14.05;58.24;100218.81;5538275;25;20569;-69
2024/04/15 11:07:41;;;;;;;2.20;0.50;;;;;;;13.76;59.03;100214.22;5537934;25;20499;-70
2024/04/15 11:10:08;;;;;;;2.30;0.60;;;;;;;13.63;63.16;100219.63;5544043;25;20465;-69
2024/04/15 11:12:36;;;;;;;2.30;0.53;;;;;;;13.67;64.93;100214.28;5541902;25;20462;-69
2024/04/15 11:15:03;;;;;;;2.40;0.50;;;;;;;13.61;64.45;100219.13;5543390;25;20580;-68
2024/04/15 11:17:32;;;;;;;3.27;0.87;;;;;;;13.41;68.76;100228.03;5539875;25;21120;-68
2024/04/15 11:19:59;;;;;;;3.00;1.03;;;;;;;13.07;74.32;100226.28;5525953;26;20454;-67
2024/04/15 11:22:30;;;;;;;2.93;0.77;;;;;;;12.67;81.18;100223.06;5526439;25;20518;-69
2024/04/15 11:24:56;;;;;;;4.07;1.40;;;;;;;12.26;85.35;100232.53;5545244;25;20465;-72
2024/04/15 11:27:28;;;;;;;2.90;1.00;;;;;;;11.94;88.13;100228.41;5545555;25;20458;-70
2024/04/15 11:29:55;;;;;;;3.37;1.00;;;;;;;11.72;92.32;100223.88;5563024;25;20268;-69
2024/04/15 11:32:24;;;;;;;12.50;1.40;;;;;;;11.59;95.52;100209.34;5557067;25;20465;-69